createdAt,value
2017-12-15T00:00:27.593Z,0.90
2017-12-15T00:03:00.755Z,0.90
2017-12-15T00:05:33.295Z,0.80
2017-12-15T00:08:06.005Z,0.70
2017-12-15T00:10:38.554Z,0.80
2017-12-15T00:13:11.919Z,0.70
2017-12-15T00:15:44.482Z,0.70
2017-12-15T00:18:18.086Z,0.80
2017-12-15T00:20:50.610Z,0.70
2017-12-15T00:23:24.032Z,0.67
2017-12-15T00:25:56.453Z,0.90
2017-12-15T00:28:29.805Z,0.90
2017-12-15T00:31:02.444Z,0.70
2017-12-15T00:33:35.664Z,1.00
2017-12-15T00:36:08.477Z,0.80
2017-12-15T00:38:41.721Z,0.70
2017-12-15T00:41:14.339Z,0.60
2017-12-15T00:43:47.163Z,0.80
2017-12-15T00:46:20.109Z,1.40
2017-12-15T00:48:52.805Z,1.37
2017-12-15T00:51:25.569Z,0.80
2017-12-15T00:53:58.266Z,0.80
2017-12-15T00:56:30.685Z,0.70
2017-12-15T00:59:03.490Z,0.60
2017-12-15T01:01:36.985Z,0.80
2017-12-15T01:04:10.657Z,0.60
2017-12-15T01:06:43.563Z,0.90
2017-12-15T01:09:16.965Z,0.60
2017-12-15T01:11:49.852Z,0.73
2017-12-15T01:14:23.104Z,0.70
2017-12-15T01:16:56.526Z,0.60
2017-12-15T01:19:29.678Z,0.60
2017-12-15T01:22:02.638Z,0.70
2017-12-15T01:24:35.145Z,0.70
2017-12-15T01:27:07.921Z,0.60
2017-12-15T01:29:40.601Z,0.90
2017-12-15T01:32:13.328Z,0.70
2017-12-15T01:34:45.801Z,0.60
2017-12-15T01:37:19.195Z,0.63
2017-12-15T01:39:52.093Z,0.60
2017-12-15T01:42:26.243Z,0.50
2017-12-15T01:44:59.207Z,0.70
2017-12-15T01:47:31.738Z,0.67
2017-12-15T01:50:04.336Z,0.70
2017-12-15T01:52:37.124Z,0.70
2017-12-15T01:55:10.312Z,0.70
2017-12-15T01:57:43.224Z,0.60
2017-12-15T02:00:15.831Z,0.57
2017-12-15T02:02:49.908Z,0.70
2017-12-15T02:05:22.809Z,0.60
2017-12-15T02:07:55.447Z,0.60
2017-12-15T02:10:28.057Z,0.60
2017-12-15T02:13:00.695Z,0.60
2017-12-15T02:15:34.119Z,0.70
2017-12-15T02:18:07.068Z,0.60
2017-12-15T02:20:39.659Z,0.60
2017-12-15T02:23:12.981Z,0.60
2017-12-15T02:25:45.685Z,0.60
2017-12-15T02:28:18.331Z,0.60
2017-12-15T02:30:50.715Z,0.63
2017-12-15T02:33:24.215Z,0.60
2017-12-15T02:35:56.965Z,0.70
2017-12-15T02:38:29.438Z,0.60
2017-12-15T02:41:01.915Z,0.60
2017-12-15T02:43:34.799Z,0.60
2017-12-15T02:46:08.137Z,0.60
2017-12-15T02:48:40.666Z,0.60
2017-12-15T02:51:14.883Z,0.60
2017-12-15T02:53:47.626Z,0.60
2017-12-15T02:56:21.062Z,0.60
2017-12-15T02:58:54.009Z,0.60
2017-12-15T03:01:26.479Z,0.60
2017-12-15T03:03:59.059Z,0.60
2017-12-15T03:06:31.922Z,0.60
2017-12-15T03:09:04.505Z,0.60
2017-12-15T03:11:36.991Z,0.60
2017-12-15T03:14:09.629Z,0.60
2017-12-15T03:16:43.020Z,0.60
2017-12-15T03:19:15.797Z,0.57
2017-12-15T03:21:48.365Z,0.60
2017-12-15T03:24:20.922Z,0.60
2017-12-15T03:26:53.434Z,0.60
2017-12-15T03:29:26.079Z,0.60
2017-12-15T03:31:58.705Z,0.60
2017-12-15T03:34:31.323Z,0.60
2017-12-15T03:37:04.141Z,0.70
2017-12-15T03:39:36.604Z,0.80
2017-12-15T03:42:10.044Z,0.70
2017-12-15T03:44:43.657Z,0.70
2017-12-15T03:47:16.563Z,0.80
2017-12-15T03:49:49.080Z,0.60
2017-12-15T03:52:21.763Z,0.70
2017-12-15T03:54:55.825Z,0.67
2017-12-15T03:57:29.338Z,0.60
2017-12-15T04:00:01.936Z,0.57
2017-12-15T04:02:34.721Z,0.60
2017-12-15T04:05:08.078Z,0.60
2017-12-15T04:07:40.916Z,0.60
2017-12-15T04:10:13.571Z,0.70
2017-12-15T04:12:46.246Z,0.70
2017-12-15T04:15:18.919Z,0.60
2017-12-15T04:17:52.872Z,0.60
2017-12-15T04:20:25.694Z,0.60
2017-12-15T04:22:59.348Z,0.80
2017-12-15T04:25:32.222Z,0.60
2017-12-15T04:28:04.739Z,0.60
2017-12-15T04:30:37.287Z,0.60
2017-12-15T04:33:10.791Z,0.60
2017-12-15T04:35:43.252Z,0.70
2017-12-15T04:38:15.994Z,0.60
2017-12-15T04:40:48.408Z,0.60
2017-12-15T04:43:20.916Z,0.60
2017-12-15T04:45:53.460Z,0.60
2017-12-15T04:48:26.003Z,0.60
2017-12-15T04:50:59.479Z,0.60
2017-12-15T04:53:32.786Z,0.60
2017-12-15T04:56:05.529Z,0.70
2017-12-15T04:58:38.837Z,0.60
2017-12-15T05:01:11.510Z,0.70
2017-12-15T05:03:44.810Z,0.70
2017-12-15T05:06:18.265Z,0.70
2017-12-15T05:08:51.603Z,0.70
2017-12-15T05:11:25.186Z,0.60
2017-12-15T05:13:58.019Z,0.70
2017-12-15T05:16:30.596Z,0.77
2017-12-15T05:19:03.118Z,0.50
2017-12-15T05:21:36.021Z,0.70
2017-12-15T05:24:09.370Z,0.60
2017-12-15T05:26:41.972Z,0.73
2017-12-15T05:29:15.185Z,0.70
2017-12-15T05:31:47.990Z,0.80
2017-12-15T05:34:21.779Z,0.70
2017-12-15T05:36:54.736Z,0.70
2017-12-15T05:39:27.390Z,0.70
2017-12-15T05:42:00.729Z,0.60
2017-12-15T05:44:34.404Z,0.60
2017-12-15T05:47:07.015Z,0.70
2017-12-15T05:49:39.671Z,0.70
2017-12-15T05:52:12.190Z,0.70
2017-12-15T05:54:44.771Z,0.80
2017-12-15T05:57:18.131Z,0.80
2017-12-15T05:59:50.649Z,0.93
2017-12-15T06:02:23.090Z,0.80
2017-12-15T06:04:55.601Z,1.13
2017-12-15T06:07:27.969Z,0.80
2017-12-15T06:10:00.525Z,0.70
2017-12-15T06:12:33.837Z,0.70
2017-12-15T06:15:06.341Z,0.70
2017-12-15T06:17:38.753Z,0.80
2017-12-15T06:20:11.377Z,0.67
2017-12-15T06:22:44.093Z,0.80
2017-12-15T06:25:16.873Z,0.80
2017-12-15T06:27:49.400Z,0.70
2017-12-15T06:30:22.094Z,0.70
2017-12-15T06:32:55.490Z,0.70
2017-12-15T06:35:28.895Z,0.80
2017-12-15T06:38:01.447Z,0.73
2017-12-15T06:40:35.579Z,0.70
2017-12-15T06:43:08.780Z,0.70
2017-12-15T06:45:41.877Z,0.70
2017-12-15T06:48:14.590Z,0.70
2017-12-15T06:50:47.026Z,0.70
2017-12-15T06:53:20.465Z,0.70
2017-12-15T06:55:52.977Z,1.00
2017-12-15T06:58:25.425Z,0.80
2017-12-15T07:00:57.975Z,0.80
2017-12-15T07:03:30.714Z,0.80
2017-12-15T07:06:04.760Z,0.77
2017-12-15T07:08:37.467Z,0.63
2017-12-15T07:11:10.802Z,1.10
2017-12-15T07:13:44.154Z,0.80
2017-12-15T07:16:17.030Z,1.13
2017-12-15T07:18:50.355Z,1.00
2017-12-15T07:21:23.489Z,1.20
2017-12-15T07:23:56.505Z,0.80
2017-12-15T07:26:29.820Z,0.90
2017-12-15T07:29:02.301Z,0.80
2017-12-15T07:31:35.781Z,0.83
2017-12-15T07:34:09.374Z,0.80
2017-12-15T07:36:43.048Z,1.00
2017-12-15T07:39:15.737Z,0.80
2017-12-15T07:41:48.168Z,0.60
2017-12-15T07:44:20.818Z,0.63
2017-12-15T07:46:54.114Z,0.70
2017-12-15T07:49:26.885Z,0.70
2017-12-15T07:52:01.020Z,0.77
2017-12-15T07:54:34.399Z,0.60
2017-12-15T07:57:07.061Z,0.80
2017-12-15T07:59:39.901Z,0.80
2017-12-15T08:02:12.455Z,1.30
2017-12-15T08:04:45.785Z,1.00
2017-12-15T08:07:18.734Z,0.90
2017-12-15T08:09:51.230Z,0.80
2017-12-15T08:12:25.397Z,0.80
2017-12-15T08:14:58.294Z,0.90
2017-12-15T08:17:30.828Z,0.90
2017-12-15T08:20:03.435Z,0.80
2017-12-15T08:22:36.038Z,0.87
2017-12-15T08:25:10.117Z,0.90
2017-12-15T08:27:43.683Z,1.23
2017-12-15T08:30:16.406Z,0.93
2017-12-15T08:32:49.030Z,0.80
2017-12-15T08:35:22.338Z,0.70
2017-12-15T08:37:55.248Z,0.70
2017-12-15T08:40:27.707Z,0.80
2017-12-15T08:43:00.255Z,0.70
2017-12-15T08:45:32.777Z,0.97
2017-12-15T08:48:06.020Z,0.67
2017-12-15T08:50:40.234Z,0.80
2017-12-15T08:53:13.540Z,0.80
2017-12-15T08:55:47.582Z,0.90
2017-12-15T08:58:21.063Z,0.90
2017-12-15T09:00:53.717Z,0.80
2017-12-15T09:03:26.913Z,0.80
2017-12-15T09:06:00.110Z,0.73
2017-12-15T09:08:34.098Z,0.90
2017-12-15T09:11:07.229Z,0.90
2017-12-15T09:13:40.613Z,0.87
2017-12-15T09:16:13.283Z,0.77
2017-12-15T09:18:45.961Z,0.70
2017-12-15T09:21:18.516Z,0.80
2017-12-15T09:23:51.194Z,0.90
2017-12-15T09:26:24.534Z,0.83
2017-12-15T09:28:57.060Z,0.70
2017-12-15T09:31:29.473Z,0.70
2017-12-15T09:34:01.958Z,1.00
2017-12-15T09:36:35.356Z,0.90
2017-12-15T09:39:08.926Z,0.70
2017-12-15T09:41:42.095Z,1.20
2017-12-15T09:44:14.877Z,0.80
2017-12-15T09:46:48.131Z,0.90
2017-12-15T09:49:21.019Z,0.80
2017-12-15T09:51:54.277Z,0.87
2017-12-15T09:54:26.925Z,0.80
2017-12-15T09:57:00.220Z,0.90
2017-12-15T09:59:32.719Z,0.83
2017-12-15T10:02:05.962Z,1.10
2017-12-15T10:04:38.875Z,1.40
2017-12-15T10:07:11.354Z,0.90
2017-12-15T10:09:44.014Z,0.90
2017-12-15T10:12:17.318Z,1.23
2017-12-15T10:14:50.362Z,0.90
2017-12-15T10:17:23.108Z,0.90
2017-12-15T10:19:56.504Z,1.20
2017-12-15T10:22:29.821Z,0.90
2017-12-15T10:25:03.587Z,0.80
2017-12-15T10:27:36.394Z,0.80
2017-12-15T10:30:09.107Z,1.00
2017-12-15T10:32:42.362Z,0.77
2017-12-15T10:35:15.248Z,0.90
2017-12-15T10:37:47.820Z,1.10
2017-12-15T10:40:21.235Z,0.97
2017-12-15T10:42:53.964Z,1.00
2017-12-15T10:45:26.402Z,0.77
2017-12-15T10:47:59.839Z,1.53
2017-12-15T10:50:32.349Z,0.80
2017-12-15T10:53:05.724Z,0.80
2017-12-15T10:55:38.321Z,0.83
2017-12-15T10:58:11.628Z,0.77
2017-12-15T11:00:44.364Z,0.80
2017-12-15T11:03:16.961Z,0.60
2017-12-15T11:05:50.413Z,1.00
2017-12-15T11:08:23.554Z,1.03
2017-12-15T11:10:56.298Z,0.77
2017-12-15T11:13:29.658Z,0.80
2017-12-15T11:16:02.316Z,0.70
2017-12-15T11:18:34.926Z,0.60
2017-12-15T11:21:07.625Z,1.00
2017-12-15T11:23:40.055Z,0.90
2017-12-15T11:26:12.618Z,0.90
2017-12-15T11:28:45.356Z,0.80
2017-12-15T11:31:18.625Z,0.70
2017-12-15T11:33:51.286Z,0.77
2017-12-15T11:36:24.681Z,0.97
2017-12-15T11:38:58.100Z,0.87
2017-12-15T11:41:31.100Z,0.87
2017-12-15T11:44:04.493Z,0.80
2017-12-15T11:46:37.338Z,1.43
2017-12-15T11:49:10.619Z,1.00
2017-12-15T11:51:44.160Z,0.90
2017-12-15T11:54:16.875Z,0.87
2017-12-15T11:56:49.453Z,0.90
2017-12-15T11:59:22.020Z,0.93
2017-12-15T12:01:54.451Z,1.10
2017-12-15T12:04:26.942Z,0.77
2017-12-15T12:07:00.190Z,0.70
2017-12-15T12:09:32.749Z,1.10
2017-12-15T12:12:05.358Z,1.30
2017-12-15T12:14:37.831Z,1.17
2017-12-15T12:17:11.158Z,0.80
2017-12-15T12:19:43.776Z,0.80
2017-12-15T12:22:16.197Z,0.90
2017-12-15T12:24:49.969Z,0.80
2017-12-15T12:27:23.875Z,0.73
2017-12-15T12:29:57.578Z,1.10
2017-12-15T12:32:30.466Z,1.10
2017-12-15T12:35:03.906Z,0.83
2017-12-15T12:37:37.197Z,0.90
2017-12-15T12:40:10.226Z,0.80
2017-12-15T12:42:43.280Z,1.03
2017-12-15T12:45:16.109Z,0.70
2017-12-15T12:47:49.473Z,1.17
2017-12-15T12:50:22.723Z,0.63
2017-12-15T12:52:55.477Z,1.00
2017-12-15T12:55:28.082Z,1.83
2017-12-15T12:58:01.273Z,1.17
2017-12-15T13:00:34.290Z,1.00
2017-12-15T13:03:06.824Z,0.80
2017-12-15T13:05:39.350Z,1.10
2017-12-15T13:08:11.877Z,1.10
2017-12-15T13:10:44.567Z,0.90
2017-12-15T13:13:18.046Z,0.90
2017-12-15T13:15:50.567Z,0.80
2017-12-15T13:18:24.709Z,0.90
2017-12-15T13:20:57.515Z,1.10
2017-12-15T13:23:31.724Z,1.63
2017-12-15T13:26:04.387Z,1.10
2017-12-15T13:28:37.003Z,0.70
2017-12-15T13:31:10.424Z,1.07
2017-12-15T13:33:43.070Z,1.07
2017-12-15T13:36:15.549Z,0.80
2017-12-15T13:38:48.087Z,1.00
2017-12-15T13:41:20.670Z,0.80
2017-12-15T13:43:54.117Z,0.80
2017-12-15T13:46:26.626Z,0.80
2017-12-15T13:48:59.495Z,0.93
2017-12-15T13:51:31.922Z,0.73
2017-12-15T13:54:04.866Z,0.90
2017-12-15T13:56:37.697Z,1.00
2017-12-15T13:59:11.098Z,1.20
2017-12-15T14:01:44.217Z,0.80
2017-12-15T14:04:16.842Z,1.00
2017-12-15T14:06:49.449Z,1.00
2017-12-15T14:09:21.997Z,0.90
2017-12-15T14:11:55.186Z,0.70
2017-12-15T14:14:28.018Z,0.90
2017-12-15T14:17:00.576Z,1.57
2017-12-15T14:19:33.044Z,0.93
2017-12-15T14:22:05.715Z,0.90
2017-12-15T14:24:38.155Z,0.90
2017-12-15T14:27:10.763Z,1.27
2017-12-15T14:29:44.359Z,1.07
2017-12-15T14:32:17.511Z,1.30
2017-12-15T14:34:51.052Z,1.03
2017-12-15T14:37:24.366Z,1.20
2017-12-15T14:39:57.677Z,1.00
2017-12-15T14:42:30.254Z,1.20
2017-12-15T14:45:03.656Z,1.20
2017-12-15T14:47:36.929Z,1.10
2017-12-15T14:50:10.333Z,1.30
2017-12-15T14:52:43.790Z,0.90
2017-12-15T14:55:17.252Z,1.00
2017-12-15T14:57:50.702Z,0.87
2017-12-15T15:00:23.120Z,0.90
2017-12-15T15:02:56.049Z,1.00
2017-12-15T15:05:29.280Z,1.20
2017-12-15T15:08:02.101Z,1.17
2017-12-15T15:10:34.694Z,1.00
2017-12-15T15:13:07.883Z,0.90
2017-12-15T15:15:40.884Z,1.10
2017-12-15T15:18:13.307Z,0.97
2017-12-15T15:20:45.826Z,1.30
2017-12-15T15:23:19.265Z,1.10
2017-12-15T15:25:51.757Z,1.07
2017-12-15T15:28:25.153Z,1.10
2017-12-15T15:30:58.613Z,1.00
2017-12-15T15:33:32.049Z,0.80
2017-12-15T15:36:05.158Z,0.70
2017-12-15T15:38:38.691Z,0.73
2017-12-15T15:41:12.167Z,0.93
2017-12-15T15:43:45.007Z,1.33
2017-12-15T15:46:18.448Z,0.93
2017-12-15T15:48:51.078Z,1.00
2017-12-15T15:51:23.672Z,1.40
2017-12-15T15:53:57.101Z,1.43
2017-12-15T15:56:30.579Z,1.23
2017-12-15T15:59:03.181Z,1.60
2017-12-15T16:01:35.819Z,1.07
2017-12-15T16:04:08.384Z,1.13
2017-12-15T16:06:40.951Z,1.00
2017-12-15T16:09:13.519Z,1.80
2017-12-15T16:11:45.938Z,1.50
2017-12-15T16:14:18.891Z,1.00
2017-12-15T16:16:51.905Z,0.80
2017-12-15T16:19:25.420Z,1.43
2017-12-15T16:21:58.165Z,0.93
2017-12-15T16:24:30.812Z,0.80
2017-12-15T16:27:03.449Z,1.50
2017-12-15T16:29:36.751Z,1.00
2017-12-15T16:32:09.441Z,1.53
2017-12-15T16:34:41.970Z,1.33
2017-12-15T16:37:14.440Z,0.80
2017-12-15T16:39:47.233Z,1.20
2017-12-15T16:42:20.461Z,0.93
2017-12-15T16:44:53.006Z,0.97
2017-12-15T16:47:25.549Z,1.73
2017-12-15T16:49:58.781Z,1.47
2017-12-15T16:52:32.572Z,3.30
2017-12-15T16:55:05.991Z,1.70
2017-12-15T16:57:38.550Z,1.30
2017-12-15T17:00:11.009Z,1.50
2017-12-15T17:02:45.121Z,1.20
2017-12-15T17:05:17.928Z,1.50
2017-12-15T17:07:50.378Z,1.70
2017-12-15T17:10:22.927Z,1.10
2017-12-15T17:12:55.542Z,1.30
2017-12-15T17:15:28.203Z,1.20
2017-12-15T17:18:01.692Z,1.30
2017-12-15T17:20:34.245Z,1.50
2017-12-15T17:23:07.660Z,1.13
2017-12-15T17:25:40.873Z,1.20
2017-12-15T17:28:14.005Z,1.50
2017-12-15T17:30:47.051Z,2.10
2017-12-15T17:33:20.397Z,1.40
2017-12-15T17:35:53.809Z,1.40
2017-12-15T17:38:27.135Z,1.20
2017-12-15T17:40:59.813Z,1.60
2017-12-15T17:43:33.063Z,1.60
2017-12-15T17:46:06.175Z,1.63
2017-12-15T17:48:38.774Z,1.30
2017-12-15T17:51:11.334Z,1.33
2017-12-15T17:53:43.926Z,1.93
2017-12-15T17:56:16.374Z,1.40
2017-12-15T17:58:48.898Z,1.63
2017-12-15T18:01:21.572Z,1.23
2017-12-15T18:03:54.152Z,1.10
2017-12-15T18:06:26.680Z,1.20
2017-12-15T18:08:59.306Z,1.67
2017-12-15T18:11:31.869Z,1.20
2017-12-15T18:14:04.442Z,1.67
2017-12-15T18:16:37.119Z,2.93
2017-12-15T18:19:09.701Z,1.93
2017-12-15T18:21:43.168Z,2.03
2017-12-15T18:24:15.760Z,2.10
2017-12-15T18:26:48.278Z,1.47
2017-12-15T18:29:20.829Z,1.20
2017-12-15T18:31:53.796Z,1.57
2017-12-15T18:34:27.159Z,1.43
2017-12-15T18:37:00.921Z,1.17
2017-12-15T18:39:34.100Z,1.20
2017-12-15T18:42:07.538Z,1.40
2017-12-15T18:44:41.195Z,1.50
2017-12-15T18:47:15.129Z,2.07
2017-12-15T18:49:48.495Z,1.57
2017-12-15T18:52:22.608Z,1.83
2017-12-15T18:54:56.616Z,2.23
2017-12-15T18:57:31.959Z,2.07
2017-12-15T19:00:07.680Z,2.00
2017-12-15T19:02:43.256Z,1.70
2017-12-15T19:05:18.550Z,2.60
2017-12-15T19:07:54.533Z,2.20
2017-12-15T19:10:30.080Z,2.40
2017-12-15T19:13:06.591Z,3.17
2017-12-15T19:15:42.117Z,2.63
2017-12-15T19:18:17.268Z,2.17
2017-12-15T19:20:53.316Z,2.00
2017-12-15T19:23:28.757Z,1.73
2017-12-15T19:26:04.123Z,1.50
2017-12-15T19:28:39.848Z,2.30
2017-12-15T19:31:14.943Z,1.60
2017-12-15T19:33:50.734Z,1.87
2017-12-15T19:36:25.920Z,1.87
2017-12-15T19:39:01.301Z,1.10
2017-12-15T19:41:37.254Z,2.10
2017-12-15T19:44:12.605Z,1.70
2017-12-15T19:46:47.950Z,2.03
2017-12-15T19:49:23.197Z,1.87
2017-12-15T19:51:58.352Z,1.97
2017-12-15T19:54:33.811Z,2.70
2017-12-15T19:57:09.187Z,2.80
2017-12-15T19:59:45.367Z,2.80
2017-12-15T20:02:21.096Z,2.40
2017-12-15T20:04:56.288Z,2.27
2017-12-15T20:07:32.291Z,2.53
2017-12-15T20:10:07.629Z,2.87
2017-12-15T20:12:42.809Z,2.80
2017-12-15T20:15:18.433Z,2.23
2017-12-15T20:17:54.684Z,2.07
2017-12-15T20:20:31.998Z,2.00
2017-12-15T20:23:08.567Z,1.80
2017-12-15T20:25:43.828Z,2.00
2017-12-15T20:28:19.922Z,2.30
2017-12-15T20:30:55.795Z,3.57
2017-12-15T20:33:31.128Z,3.30
2017-12-15T20:36:06.340Z,5.17
2017-12-15T20:38:41.990Z,3.80
2017-12-15T20:41:17.418Z,3.67
2017-12-15T20:43:53.287Z,3.90
2017-12-15T20:46:28.000Z,3.43
2017-12-15T20:49:03.790Z,2.10
2017-12-15T20:51:40.745Z,2.20
2017-12-15T20:54:15.968Z,1.80
2017-12-15T20:56:52.915Z,2.40
2017-12-15T20:59:28.238Z,2.30
2017-12-15T21:02:05.506Z,2.63
2017-12-15T21:04:41.984Z,2.30
2017-12-15T21:07:18.347Z,4.10
2017-12-15T21:09:54.037Z,3.00
2017-12-15T21:12:29.664Z,2.67
2017-12-15T21:15:05.942Z,2.60
2017-12-15T21:17:41.180Z,2.57
2017-12-15T21:20:16.505Z,2.30
2017-12-15T21:22:51.896Z,2.00
2017-12-15T21:25:27.040Z,2.43
2017-12-15T21:28:03.096Z,2.03
2017-12-15T21:30:38.573Z,2.27
2017-12-15T21:33:14.048Z,2.40
2017-12-15T21:35:49.069Z,2.77
2017-12-15T21:38:24.781Z,1.87
2017-12-15T21:41:01.227Z,2.30
2017-12-15T21:43:36.927Z,2.40
2017-12-15T21:46:13.214Z,1.90
2017-12-15T21:48:48.978Z,1.80
2017-12-15T21:51:24.801Z,2.10
2017-12-15T21:54:00.498Z,2.70
2017-12-15T21:56:36.011Z,2.20
2017-12-15T21:59:12.325Z,1.77
2017-12-15T22:01:47.289Z,1.80
2017-12-15T22:04:23.907Z,1.70
2017-12-15T22:06:59.334Z,1.77
2017-12-15T22:09:35.995Z,2.17
2017-12-15T22:12:09.600Z,1.83
2017-12-15T22:14:45.427Z,2.00
2017-12-15T22:17:20.462Z,2.20
2017-12-15T22:19:55.614Z,1.70
2017-12-15T22:22:31.040Z,1.90
2017-12-15T22:25:04.696Z,1.77
2017-12-15T22:27:38.113Z,1.97
2017-12-15T22:30:12.169Z,1.90
2017-12-15T22:32:45.873Z,1.50
2017-12-15T22:35:19.028Z,2.43
2017-12-15T22:37:52.679Z,2.13
2017-12-15T22:40:25.835Z,1.70
2017-12-15T22:42:59.185Z,1.90
2017-12-15T22:45:32.758Z,1.80
2017-12-15T22:48:05.591Z,1.70
2017-12-15T22:50:38.084Z,2.17
2017-12-15T22:53:11.557Z,2.07
2017-12-15T22:55:44.017Z,2.40
2017-12-15T22:58:16.657Z,1.80
2017-12-15T23:00:49.263Z,2.23
2017-12-15T23:03:22.002Z,2.00
2017-12-15T23:05:55.327Z,1.87
2017-12-15T23:08:28.790Z,2.17
2017-12-15T23:11:01.228Z,1.77
2017-12-15T23:13:33.816Z,2.53
2017-12-15T23:16:06.256Z,2.43
2017-12-15T23:18:39.683Z,2.23
2017-12-15T23:21:13.146Z,2.20
2017-12-15T23:23:46.267Z,2.63
2017-12-15T23:26:19.311Z,2.90
2017-12-15T23:28:51.960Z,2.90
2017-12-15T23:31:24.644Z,1.97
2017-12-15T23:33:57.309Z,2.30
2017-12-15T23:36:30.525Z,2.10
2017-12-15T23:39:03.438Z,2.17
2017-12-15T23:41:36.676Z,2.43
2017-12-15T23:44:10.330Z,2.30
2017-12-15T23:46:43.909Z,2.60
2017-12-15T23:49:16.675Z,1.60
2017-12-15T23:51:50.102Z,2.03
2017-12-15T23:54:41.168Z,1.90
2017-12-15T23:57:14.566Z,2.10
2017-12-15T23:59:48.604Z,1.80
